Deadhorse Airport Deadhorse US
ICAO: PASC
IATA:
Category: Medium
Scheduled Services:

Elevation: 65 ft
TransAlt. 18000 ft.

Airport Communications:
ATIS:118.4
ANCHORAGE CNTR:134.4
CTAF:123.6
RDO:122.2
UNICOM:123

PASC Zoom In..

Runways:

(A) RW 05 length 6500 ft width 150 ft
ILS 109.30 / hdg 52

(B) RW 06 length 6500 ft width 100 ft
---- / hdg 52

(C) RW 23 length 6500 ft width 150 ft
---- / hdg 232

(D) RW 24 length 6500 ft width 100 ft
---- / hdg 232

Location; PASC
Day. 20 / Time. 10.28 Zulu
* Altimeter: 30.01
* Temperature: -20° c. 4°f.
* Wind from: 050° Speed 15 kn.
Dewpoint: -23° c.
Visibility: 7 Statute Miles.
Clouds: Few 1700 ft.
Clouds: Scattered 2300 ft.

PASC 201028Z 05015KT 7SM FEW017 SCT023 M20/M23 A3001 RMK AO2 SNE24 P0000 T12001228


Wind From 050°
Speed 15 kn.

  YouTube Music Video
 
jpsmedia.com for Web Design  worldairports.se 2018   terms of use